| time (UTC) | temp F | wind direction | speed knots | gust knots | rain 1hr in | rain 24hr in | rain mn in | humidity % | barometer mb |
| 20260507172018 | 57 | 33 | 0.0 | 0.0 | 0.00 | 0.00 | 0.00 | 27 | 1020.6 |
| 20260507171513 | 58 | 329 | 0.9 | 1.7 | 0.00 | 0.00 | 0.00 | 31 | 1021.0 |
| 20260507171011 | 57 | 238 | 1.7 | 1.7 | 0.00 | 0.00 | 0.00 | 29 | 1020.9 |
| 20260507170508 | 57 | 233 | 1.7 | 2.6 | 0.00 | 0.00 | 0.00 | 31 | 1020.9 |
| 20260507170005 | 57 | 331 | 0.9 | 1.7 | 0.00 | 0.00 | 0.00 | 29 | 1020.9 |
| 20260507165500 | 57 | 243 | 1.7 | 4.3 | 0.00 | 0.00 | 0.00 | 30 | 1021.1 |
| 20260507164956 | 57 | 310 | 0.0 | 0.9 | 0.00 | 0.00 | 0.00 | 35 | 1021.0 |
| 20260507164453 | 57 | 346 | 0.9 | 0.9 | 0.00 | 0.00 | 0.00 | 33 | 1020.7 |
| 20260507163950 | 56 | 206 | 0.0 | 0.0 | 0.00 | 0.00 | 0.00 | 34 | 1020.9 |
| 20260507163447 | 56 | 14 | 0.0 | 0.9 | 0.00 | 0.00 | 0.00 | 36 | 1021.1 |
| 20260507162944 | 55 | 280 | 0.9 | 0.9 | 0.00 | 0.00 | 0.00 | 37 | 1021.0 |
| 20260507162440 | 54 | 169 | 0.9 | 0.9 | 0.00 | 0.00 | 0.00 | 41 | 1020.6 |
| 20260507161937 | 54 | 343 | 0.9 | 1.7 | 0.00 | 0.00 | 0.00 | 36 | 1020.9 |
| 20260507161433 | 53 | 302 | 1.7 | 4.3 | 0.00 | 0.00 | 0.00 | 38 | 1020.9 |
| 20260507160930 | 52 | 329 | 0.0 | 0.0 | 0.00 | 0.00 | 0.00 | 39 | 1021.1 |
| 20260507160426 | 53 | 345 | 0.9 | 0.9 | 0.00 | 0.00 | 0.00 | 42 | 1020.9 |
| 20260507155922 | 52 | 338 | 1.7 | 1.7 | 0.00 | 0.00 | 0.00 | 40 | 1021.0 |
| 20260507155418 | 51 | 301 | 1.7 | 2.6 | 0.00 | 0.00 | 0.00 | 42 | 1020.9 |
| 20260507154915 | 51 | 245 | 0.9 | 2.6 | 0.00 | 0.00 | 0.00 | 42 | 1021.0 |
| 20260507154412 | 50 | 253 | 1.7 | 1.7 | 0.00 | 0.00 | 0.00 | 43 | 1020.9 |
| 20260507153909 | 50 | 291 | 2.6 | 2.6 | 0.00 | 0.00 | 0.00 | 45 | 1021.1 |
| 20260507153406 | 49 | 341 | 0.9 | 0.9 | 0.00 | 0.00 | 0.00 | 47 | 1021.1 |
| 20260507152902 | 49 | 22 | 0.0 | 0.0 | 0.00 | 0.00 | 0.00 | 49 | 1021.0 |
| 20260507152358 | 48 | 243 | 1.7 | 1.7 | 0.00 | 0.00 | 0.00 | 51 | 1021.1 |
| 20260507151854 | 48 | 307 | 0.0 | 0.9 | 0.00 | 0.00 | 0.00 | 51 | 1021.2 |
| 20260507151351 | 47 | 97 | 0.9 | 0.9 | 0.00 | 0.00 | 0.00 | 49 | 1021.2 |
| 20260507150848 | 46 | 235 | 2.6 | 5.2 | 0.00 | 0.00 | 0.00 | 50 | 1021.2 |
| 20260507150344 | 46 | 233 | 1.7 | 1.7 | 0.00 | 0.00 | 0.00 | 50 | 1021.1 |
| 20260507145841 | 45 | 316 | 0.9 | 0.9 | 0.00 | 0.00 | 0.00 | 53 | 1020.9 |
| 20260507145338 | 45 | 325 | 0.9 | 0.9 | 0.00 | 0.00 | 0.00 | 55 | 1021.0 |
| 20260507144834 | 45 | 0 | 0.9 | 1.7 | 0.00 | 0.00 | 0.00 | 54 | 1020.7 |
| 20260507144332 | 44 | 300 | 0.9 | 0.9 | 0.00 | 0.00 | 0.00 | 55 | 1021.0 |
| 20260507143828 | 44 | 343 | 0.0 | 0.9 | 0.00 | 0.00 | 0.00 | 55 | 1021.0 |
| 20260507143325 | 44 | 11 | 0.0 | 0.0 | 0.00 | 0.00 | 0.00 | 57 | 1021.0 |
| 20260507142821 | 43 | 265 | 0.9 | 1.7 | 0.00 | 0.00 | 0.00 | 54 | 1020.9 |
| 20260507142318 | 42 | 260 | 1.7 | 2.6 | 0.00 | 0.00 | 0.00 | 54 | 1020.9 |
| 20260507141815 | 42 | 267 | 0.9 | 0.9 | 0.00 | 0.00 | 0.00 | 56 | 1021.0 |
| 20260507141311 | 42 | 288 | 1.7 | 1.7 | 0.00 | 0.00 | 0.00 | 55 | 1021.1 |
| 20260507140808 | 42 | 298 | 0.9 | 1.7 | 0.00 | 0.00 | 0.00 | 56 | 1020.9 |
| 20260507140305 | 41 | 332 | 0.9 | 0.9 | 0.00 | 0.00 | 0.00 | 55 | 1021.0 |
| 20260507135802 | 41 | 334 | 2.6 | 2.6 | 0.00 | 0.00 | 0.00 | 54 | 1021.0 |
| 20260507135259 | 41 | 310 | 0.9 | 1.7 | 0.00 | 0.00 | 0.00 | 54 | 1020.7 |
| 20260507134755 | 41 | 288 | 0.0 | 0.9 | 0.00 | 0.00 | 0.00 | 55 | 1020.9 |
| 20260507134252 | 40 | 338 | 0.9 | 1.7 | 0.00 | 0.00 | 0.00 | 56 | 1021.1 |
| 20260507133748 | 40 | 327 | 0.9 | 1.7 | 0.00 | 0.00 | 0.00 | 55 | 1020.7 |
| 20260507133244 | 39 | 339 | 0.9 | 1.7 | 0.00 | 0.00 | 0.00 | 55 | 1020.7 |
| 20260507132742 | 38 | 304 | 0.9 | 0.9 | 0.00 | 0.00 | 0.00 | 57 | 1020.2 |
| 20260507132239 | 38 | 351 | 1.7 | 2.6 | 0.00 | 0.00 | 0.00 | 59 | 1020.6 |
| 20260507131736 | 37 | 307 | 0.0 | 0.0 | 0.00 | 0.00 | 0.00 | 58 | 1020.6 |
| 20260507131233 | 37 | 314 | 0.0 | 0.0 | 0.00 | 0.00 | 0.00 | 60 | 1020.4 |
| 20260507130730 | 37 | 303 | 1.7 | 1.7 | 0.00 | 0.00 | 0.00 | 59 | 1020.5 |
| 20260507130227 | 37 | 308 | 0.0 | 0.9 | 0.00 | 0.00 | 0.00 | 60 | 1020.5 |
| 20260507125726 | 36 | 295 | 0.9 | 1.7 | 0.00 | 0.00 | 0.00 | 60 | 1020.4 |
| 20260507125223 | 35 | 333 | 0.9 | 1.7 | 0.00 | 0.00 | 0.00 | 60 | 1020.4 |
| 20260507124720 | 35 | 297 | 0.9 | 0.9 | 0.00 | 0.00 | 0.00 | 61 | 1020.4 |
| 20260507124217 | 35 | 334 | 0.9 | 1.7 | 0.00 | 0.00 | 0.00 | 61 | 1020.2 |
| 20260507123715 | 35 | 294 | 0.0 | 0.9 | 0.00 | 0.00 | 0.00 | 61 | 1020.2 |
| 20260507123212 | 35 | 303 | 0.9 | 0.9 | 0.00 | 0.00 | 0.00 | 60 | 1020.5 |
| 20260507122708 | 34 | 311 | 0.9 | 1.7 | 0.00 | 0.00 | 0.00 | 61 | 1020.0 |
| 20260507122203 | 33 | 316 | 0.9 | 0.9 | 0.00 | 0.00 | 0.00 | 62 | 1020.4 |
| 20260507121659 | 33 | 332 | 0.9 | 0.9 | 0.00 | 0.00 | 0.00 | 61 | 1020.2 |
| 20260507121155 | 33 | 320 | 0.9 | 0.9 | 0.00 | 0.00 | 0.00 | 62 | 1020.2 |
| 20260507120652 | 33 | 326 | 0.0 | 0.0 | 0.00 | 0.00 | 0.00 | 65 | 1020.2 |
| 20260507120149 | 33 | 305 | 0.0 | 0.0 | 0.00 | 0.00 | 0.00 | 63 | 1020.2 |
| 20260507115645 | 33 | 334 | 0.0 | 0.9 | 0.00 | 0.00 | 0.00 | 62 | 1020.0 |
| 20260507115140 | 32 | 307 | 0.0 | 0.0 | 0.00 | 0.00 | 0.00 | 62 | 1020.1 |
| 20260507114637 | 32 | 305 | 0.9 | 0.9 | 0.00 | 0.00 | 0.00 | 64 | 1020.1 |
| 20260507114134 | 32 | 293 | 0.0 | 0.9 | 0.00 | 0.00 | 0.00 | 64 | 1020.2 |
| 20260507113631 | 32 | 300 | 0.0 | 0.0 | 0.00 | 0.00 | 0.00 | 63 | 1020.1 |
| 20260507113128 | 33 | 304 | 0.0 | 0.0 | 0.00 | 0.00 | 0.00 | 62 | 1020.2 |
| 20260507112626 | 33 | 322 | 0.0 | 0.9 | 0.00 | 0.00 | 0.00 | 61 | 1020.2 |
| 20260507112122 | 33 | 295 | 0.9 | 0.9 | 0.00 | 0.00 | 0.00 | 60 | 1020.0 |
| 20260507111620 | 33 | 324 | 0.0 | 0.0 | 0.00 | 0.00 | 0.00 | 61 | 1020.0 |
| 20260507111116 | 32 | 305 | 0.0 | 0.9 | 0.00 | 0.00 | 0.00 | 62 | 1020.2 |
| 20260507110613 | 32 | 327 | 0.0 | 0.0 | 0.00 | 0.00 | 0.00 | 63 | 1020.1 |
| 20260507110109 | 32 | 301 | 0.9 | 0.9 | 0.00 | 0.00 | 0.00 | 63 | 1020.2 |
| 20260507105606 | 32 | 324 | 0.0 | 0.0 | 0.00 | 0.00 | 0.00 | 63 | 1020.2 |
| 20260507105102 | 32 | 316 | 0.9 | 0.9 | 0.00 | 0.00 | 0.00 | 62 | 1020.1 |
| 20260507104600 | 32 | 320 | 0.0 | 0.9 | 0.00 | 0.00 | 0.00 | 63 | 1020.2 |
| 20260507104056 | 32 | 336 | 0.9 | 0.9 | 0.00 | 0.00 | 0.00 | 63 | 1020.2 |
| 20260507103552 | 32 | 314 | 1.7 | 1.7 | 0.00 | 0.00 | 0.00 | 62 | 1020.2 |
| 20260507103049 | 32 | 311 | 0.9 | 1.7 | 0.00 | 0.00 | 0.00 | 64 | 1020.1 |
| 20260507102545 | 32 | 300 | 0.9 | 0.9 | 0.00 | 0.00 | 0.00 | 66 | 1020.4 |
| 20260507102042 | 31 | 326 | 0.0 | 0.9 | 0.00 | 0.00 | 0.00 | 66 | 1020.0 |
| 20260507101537 | 31 | 342 | 0.9 | 0.9 | 0.00 | 0.00 | 0.00 | 68 | 1020.5 |
| 20260507101033 | 31 | 333 | 0.0 | 0.0 | 0.00 | 0.00 | 0.00 | 68 | 1020.6 |
| 20260507100531 | 31 | 336 | 0.0 | 0.0 | 0.00 | 0.00 | 0.00 | 69 | 1020.5 |
| 20260507100029 | 31 | 291 | 0.0 | 0.0 | 0.00 | 0.00 | 0.00 | 71 | 1020.6 |
| 20260507095527 | 30 | 294 | 0.0 | 0.9 | 0.00 | 0.00 | 0.00 | 72 | 1020.5 |
| 20260507095023 | 30 | 280 | 0.0 | 0.9 | 0.00 | 0.00 | 0.00 | 72 | 1020.5 |
| 20260507094519 | 30 | 333 | 0.0 | 0.9 | 0.00 | 0.00 | 0.00 | 74 | 1020.4 |
| 20260507094017 | 29 | 310 | 0.9 | 0.9 | 0.00 | 0.00 | 0.00 | 75 | 1020.4 |
| 20260507093514 | 29 | 298 | 0.0 | 0.9 | 0.00 | 0.00 | 0.00 | 76 | 1020.4 |
| 20260507093013 | 30 | 325 | 0.0 | 0.9 | 0.00 | 0.00 | 0.00 | 74 | 1020.4 |
| 20260507092509 | 29 | 300 | 0.9 | 0.9 | 0.00 | 0.00 | 0.00 | 76 | 1020.4 |
| 20260507092006 | 29 | 314 | 0.0 | 0.0 | 0.00 | 0.00 | 0.00 | 78 | 1020.4 |
| 20260507091502 | 29 | 328 | 0.9 | 0.9 | 0.00 | 0.00 | 0.00 | 76 | 1020.6 |
| 20260507090958 | 29 | 295 | 0.0 | 0.9 | 0.00 | 0.00 | 0.00 | 76 | 1020.6 |
| 20260507090454 | 30 | 283 | 0.0 | 0.0 | 0.00 | 0.00 | 0.00 | 76 | 1020.7 |
| 20260507085951 | 30 | 282 | 0.0 | 0.9 | 0.00 | 0.00 | 0.00 | 76 | 1020.6 |
| 20260507085448 | 29 | 272 | 0.9 | 0.9 | 0.00 | 0.00 | 0.00 | 77 | 1020.5 |
| 20260507084944 | 29 | 313 | 0.0 | 0.9 | 0.00 | 0.00 | 0.00 | 78 | 1020.6 |
| 20260507084442 | 29 | 313 | 0.9 | 0.9 | 0.00 | 0.00 | 0.00 | 79 | 1020.6 |
| 20260507083939 | 29 | 299 | 0.0 | 0.9 | 0.00 | 0.00 | 0.00 | 81 | 1020.7 |
| 20260507083435 | 28 | 313 | 0.9 | 1.7 | 0.00 | 0.00 | 0.00 | 82 | 1020.6 |
| 20260507082931 | 28 | 295 | 0.0 | 0.9 | 0.00 | 0.00 | 0.00 | 82 | 1020.4 |
| 20260507082427 | 29 | 255 | 0.9 | 1.7 | 0.00 | 0.00 | 0.00 | 83 | 1020.7 |
| 20260507081924 | 28 | 318 | 0.0 | 0.9 | 0.00 | 0.00 | 0.00 | 84 | 1020.6 |
| 20260507081420 | 29 | 259 | 0.9 | 0.9 | 0.00 | 0.00 | 0.00 | 84 | 1020.9 |
| 20260507080917 | 28 | 324 | 0.0 | 0.0 | 0.00 | 0.00 | 0.00 | 83 | 1020.6 |
| 20260507080414 | 28 | 295 | 0.0 | 0.9 | 0.00 | 0.00 | 0.00 | 85 | 1020.7 |
| 20260507075909 | 28 | 342 | 0.0 | 0.0 | 0.00 | 0.00 | 0.00 | 89 | 1020.9 |
| 20260507075405 | 27 | 302 | 0.9 | 0.9 | 0.00 | 0.00 | 0.00 | 92 | 1020.9 |
| 20260507074902 | 27 | 276 | 0.0 | 0.9 | 0.00 | 0.00 | 0.00 | 94 | 1021.0 |
| 20260507074359 | 27 | 351 | 0.0 | 0.9 | 0.00 | 0.00 | 0.00 | 95 | 1020.9 |
| 20260507073856 | 27 | 309 | 0.0 | 0.0 | 0.00 | 0.00 | 0.00 | 97 | 1021.0 |
| 20260507073353 | 26 | 311 | 0.9 | 0.9 | 0.00 | 0.00 | 0.00 | 97 | 1021.1 |
| 20260507072850 | 26 | 324 | 0.0 | 0.0 | 0.00 | 0.00 | 0.00 | 98 | 1021.0 |
| 20260507072347 | 26 | 301 | 0.0 | 0.9 | 0.00 | 0.00 | 0.00 | 98 | 1021.2 |
| 20260507071845 | 26 | 244 | 0.0 | 0.0 | 0.00 | 0.00 | 0.00 | 98 | 1021.0 |
| 20260507071342 | 26 | 299 | 0.0 | 0.0 | 0.00 | 0.00 | 0.00 | 99 | 1020.9 |
| 20260507070838 | 26 | 301 | 0.0 | 0.0 | 0.00 | 0.00 | 0.00 | 99 | 1021.0 |
| 20260507070335 | 26 | 315 | 0.0 | 0.0 | 0.00 | 0.00 | 0.00 | 99 | 1021.2 |
| 20260507065832 | 26 | 292 | 0.0 | 0.0 | 0.00 | 0.00 | 0.00 | 99 | 1021.0 |
| 20260507065329 | 26 | 318 | 0.0 | 0.0 | 0.00 | 0.00 | 0.00 | 99 | 1021.1 |
| 20260507064826 | 26 | 320 | 0.0 | 0.0 | 0.00 | 0.00 | 0.00 | 99 | 1021.1 |
| 20260507064324 | 26 | 307 | 0.0 | 0.0 | 0.00 | 0.00 | 0.00 | 99 | 1021.0 |
| 20260507063822 | 26 | 302 | 0.0 | 0.0 | 0.00 | 0.00 | 0.00 | 99 | 1021.2 |
| 20260507063318 | 26 | 312 | 0.0 | 0.0 | 0.00 | 0.00 | 0.00 | 99 | 1021.0 |
| 20260507062815 | 26 | 315 | 0.0 | 0.0 | 0.00 | 0.00 | 0.00 | 99 | 1021.1 |
| 20260507062312 | 26 | 302 | 0.0 | 0.0 | 0.00 | 0.00 | 0.00 | 99 | 1021.1 |
| 20260507061810 | 26 | 315 | 0.0 | 0.0 | 0.00 | 0.00 | 0.00 | 99 | 1021.0 |
| 20260507061308 | 26 | 317 | 0.0 | 0.0 | 0.00 | 0.00 | 0.00 | 99 | 1021.0 |
| 20260507060806 | 26 | 326 | 0.0 | 0.0 | 0.00 | 0.00 | 0.00 | 99 | 1021.1 |
| 20260507060303 | 27 | 302 | 0.0 | 0.0 | 0.00 | 0.00 | 0.00 | 99 | 1021.0 |
| 20260507055759 | 27 | 286 | 0.0 | 0.0 | 0.00 | 0.03 | 0.03 | 99 | 1020.9 |
| 20260507055254 | 27 | 300 | 0.0 | 0.0 | 0.00 | 0.03 | 0.03 | 99 | 1020.7 |
| 20260507054751 | 27 | 305 | 0.0 | 0.0 | 0.00 | 0.03 | 0.03 | 99 | 1020.7 |
| 20260507054247 | 28 | 301 | 0.0 | 0.0 | 0.00 | 0.03 | 0.03 | 99 | 1020.9 |
| 20260507053745 | 28 | 301 | 0.0 | 0.0 | 0.00 | 0.03 | 0.03 | 99 | 1020.7 |
| 20260507053242 | 28 | 285 | 0.0 | 0.0 | 0.00 | 0.03 | 0.03 | 99 | 1021.0 |
| 20260507052741 | 28 | 295 | 0.0 | 0.0 | 0.00 | 0.03 | 0.03 | 99 | 1020.9 |
| 20260507052237 | 28 | 155 | 0.9 | 0.9 | 0.00 | 0.03 | 0.03 | 99 | 1021.0 |
| 20260507051735 | 28 | 216 | 0.0 | 0.0 | 0.00 | 0.03 | 0.03 | 99 | 1021.0 |
| 20260507051232 | 28 | 291 | 0.0 | 0.0 | 0.00 | 0.03 | 0.03 | 98 | 1021.0 |
| 20260507050728 | 29 | 236 | 0.0 | 0.0 | 0.00 | 0.03 | 0.03 | 98 | 1021.0 |
| 20260507050226 | 29 | 276 | 0.0 | 0.0 | 0.00 | 0.03 | 0.03 | 98 | 1020.9 |
| 20260507045722 | 29 | 167 | 0.0 | 0.9 | 0.00 | 0.03 | 0.03 | 98 | 1021.0 |
| 20260507045218 | 29 | 257 | 0.0 | 0.9 | 0.00 | 0.03 | 0.03 | 98 | 1021.0 |
| 20260507044716 | 29 | 201 | 0.0 | 0.0 | 0.00 | 0.03 | 0.03 | 98 | 1020.9 |
| 20260507044212 | 29 | 297 | 0.0 | 0.0 | 0.00 | 0.03 | 0.03 | 98 | 1021.1 |
| 20260507043709 | 29 | 264 | 0.0 | 0.0 | 0.00 | 0.03 | 0.03 | 98 | 1020.7 |
| 20260507043205 | 29 | 151 | 0.0 | 0.0 | 0.00 | 0.03 | 0.03 | 98 | 1020.7 |
| 20260507042702 | 29 | 193 | 0.9 | 0.9 | 0.00 | 0.03 | 0.03 | 98 | 1020.9 |
| 20260507042156 | 29 | 176 | 1.7 | 2.6 | 0.00 | 0.03 | 0.03 | 98 | 1021.1 |
| 20260507041654 | 30 | 224 | 0.0 | 0.0 | 0.00 | 0.03 | 0.03 | 98 | 1021.1 |
| 20260507041150 | 30 | 164 | 0.9 | 1.7 | 0.00 | 0.03 | 0.03 | 98 | 1020.9 |
| 20260507040648 | 29 | 292 | 0.0 | 0.0 | 0.00 | 0.03 | 0.03 | 98 | 1021.0 |
| 20260507040144 | 29 | 193 | 0.9 | 1.7 | 0.00 | 0.03 | 0.03 | 98 | 1021.0 |
| 20260507035640 | 29 | 290 | 0.0 | 0.0 | 0.00 | 0.03 | 0.03 | 98 | 1021.1 |
| 20260507035136 | 30 | 184 | 0.9 | 1.7 | 0.00 | 0.03 | 0.03 | 98 | 1021.0 |
| 20260507034633 | 30 | 163 | 0.9 | 1.7 | 0.00 | 0.03 | 0.03 | 98 | 1021.0 |
| 20260507034131 | 30 | 263 | 0.0 | 0.0 | 0.00 | 0.03 | 0.03 | 97 | 1020.9 |
| 20260507033629 | 30 | 186 | 0.0 | 0.0 | 0.00 | 0.03 | 0.03 | 97 | 1021.0 |
| 20260507033126 | 29 | 198 | 0.0 | 0.9 | 0.00 | 0.03 | 0.03 | 97 | 1020.9 |
| 20260507032623 | 29 | 282 | 0.0 | 0.0 | 0.00 | 0.03 | 0.03 | 97 | 1020.9 |
| 20260507032119 | 29 | 286 | 0.0 | 0.0 | 0.00 | 0.03 | 0.03 | 96 | 1020.9 |
| 20260507031616 | 29 | 275 | 0.0 | 0.9 | 0.00 | 0.03 | 0.03 | 96 | 1020.6 |
| 20260507031113 | 29 | 258 | 0.0 | 0.0 | 0.00 | 0.03 | 0.03 | 96 | 1020.5 |
| 20260507030609 | 30 | 173 | 0.0 | 0.9 | 0.00 | 0.03 | 0.03 | 96 | 1020.7 |
| 20260507030107 | 30 | 298 | 0.0 | 0.0 | 0.00 | 0.03 | 0.03 | 96 | 1020.6 |
| 20260507025604 | 30 | 216 | 0.0 | 0.9 | 0.00 | 0.03 | 0.03 | 96 | 1020.4 |
| 20260507025101 | 30 | 201 | 0.0 | 0.9 | 0.00 | 0.03 | 0.03 | 95 | 1020.5 |
| 20260507024559 | 30 | 205 | 0.9 | 0.9 | 0.00 | 0.03 | 0.03 | 95 | 1020.5 |
| 20260507024056 | 30 | 318 | 0.0 | 0.0 | 0.00 | 0.03 | 0.03 | 95 | 1020.2 |
| 20260507023551 | 30 | 117 | 0.0 | 0.9 | 0.00 | 0.03 | 0.03 | 95 | 1020.5 |
| 20260507023049 | 30 | 217 | 0.0 | 0.0 | 0.00 | 0.03 | 0.03 | 95 | 1020.2 |
| 20260507022546 | 30 | 214 | 0.9 | 1.7 | 0.00 | 0.03 | 0.03 | 94 | 1020.2 |
| 20260507022041 | 30 | 220 | 0.0 | 0.0 | 0.00 | 0.03 | 0.03 | 94 | 1020.2 |
| 20260507021537 | 30 | 200 | 1.7 | 1.7 | 0.00 | 0.03 | 0.03 | 95 | 1020.5 |
| 20260507021034 | 31 | 238 | 0.9 | 1.7 | 0.00 | 0.03 | 0.03 | 94 | 1020.1 |
| 20260507020532 | 31 | 166 | 0.9 | 1.7 | 0.00 | 0.03 | 0.03 | 94 | 1020.2 |
| 20260507020028 | 31 | 131 | 0.9 | 0.9 | 0.00 | 0.03 | 0.03 | 94 | 1020.1 |
| 20260507015526 | 30 | 150 | 0.0 | 0.9 | 0.00 | 0.03 | 0.03 | 93 | 1020.2 |
| 20260507015024 | 30 | 199 | 0.9 | 0.9 | 0.00 | 0.03 | 0.03 | 93 | 1020.0 |
| 20260507014520 | 30 | 217 | 0.0 | 0.0 | 0.00 | 0.03 | 0.03 | 92 | 1020.2 |
| 20260507014016 | 30 | 201 | 0.9 | 0.9 | 0.00 | 0.03 | 0.03 | 91 | 1020.2 |
| 20260507013513 | 30 | 256 | 0.0 | 0.9 | 0.00 | 0.03 | 0.03 | 91 | 1020.5 |
| 20260507013010 | 31 | 330 | 0.0 | 0.0 | 0.00 | 0.03 | 0.03 | 91 | 1020.4 |
| 20260507012507 | 31 | 261 | 0.9 | 0.9 | 0.00 | 0.03 | 0.03 | 91 | 1020.0 |
| 20260507012003 | 31 | 317 | 0.0 | 0.9 | 0.00 | 0.03 | 0.03 | 91 | 1020.0 |
| 20260507011501 | 31 | 175 | 0.9 | 0.9 | 0.00 | 0.03 | 0.03 | 90 | 1020.1 |
| 20260507010956 | 31 | 209 | 0.0 | 0.0 | 0.00 | 0.03 | 0.03 | 90 | 1020.2 |
| 20260507010451 | 31 | 203 | 0.9 | 1.7 | 0.00 | 0.03 | 0.03 | 89 | 1020.1 |
| 20260507005948 | 32 | 177 | 0.0 | 0.9 | 0.00 | 0.03 | 0.03 | 88 | 1020.1 |
| 20260507005445 | 32 | 182 | 0.0 | 0.0 | 0.00 | 0.03 | 0.03 | 87 | 1020.0 |
| 20260507004941 | 32 | 172 | 0.9 | 0.9 | 0.00 | 0.03 | 0.03 | 87 | 1019.7 |
| 20260507004438 | 32 | 175 | 0.0 | 0.9 | 0.00 | 0.03 | 0.03 | 87 | 1020.1 |
| 20260507003936 | 32 | 207 | 0.0 | 0.0 | 0.00 | 0.03 | 0.03 | 86 | 1020.2 |
| 20260507003431 | 32 | 251 | 0.0 | 0.9 | 0.00 | 0.03 | 0.03 | 87 | 1020.0 |
| 20260507002926 | 33 | 97 | 0.9 | 0.9 | 0.00 | 0.03 | 0.03 | 87 | 1020.4 |
| 20260507002423 | 33 | 143 | 1.7 | 1.7 | 0.00 | 0.03 | 0.03 | 85 | 1020.1 |
| 20260507001920 | 34 | 249 | 0.0 | 0.0 | 0.00 | 0.03 | 0.03 | 85 | 1020.0 |
| 20260507001416 | 33 | 160 | 1.7 | 1.7 | 0.00 | 0.03 | 0.03 | 86 | 1019.9 |
| 20260507000914 | 33 | 191 | 1.7 | 2.6 | 0.00 | 0.03 | 0.03 | 85 | 1020.0 |
| 20260507000409 | 34 | 333 | 0.0 | 0.0 | 0.00 | 0.03 | 0.03 | 85 | 1020.0 |
| 20260506235905 | 35 | 165 | 2.6 | 2.6 | 0.00 | 0.03 | 0.03 | 83 | 1020.0 |
| 20260506235403 | 34 | 272 | 0.0 | 0.9 | 0.00 | 0.03 | 0.03 | 82 | 1019.7 |
| 20260506234858 | 34 | 135 | 0.9 | 0.9 | 0.00 | 0.03 | 0.03 | 82 | 1019.6 |
| 20260506234356 | 35 | 209 | 1.7 | 1.7 | 0.00 | 0.03 | 0.03 | 80 | 1020.0 |
| 20260506233854 | 33 | 176 | 0.0 | 0.9 | 0.00 | 0.03 | 0.03 | 85 | 1019.7 |
| 20260506233349 | 33 | 349 | 1.7 | 1.7 | 0.00 | 0.03 | 0.03 | 82 | 1019.9 |
| 20260506232847 | 33 | 308 | 0.9 | 0.9 | 0.00 | 0.03 | 0.03 | 84 | 1020.0 |
| 20260506232342 | 34 | 260 | 0.9 | 0.9 | 0.00 | 0.03 | 0.03 | 83 | 1020.1 |
| 20260506231839 | 33 | 219 | 0.0 | 0.0 | 0.00 | 0.03 | 0.03 | 83 | 1019.7 |
| 20260506231337 | 34 | 273 | 0.0 | 0.0 | 0.00 | 0.03 | 0.03 | 84 | 1019.7 |
| 20260506230834 | 34 | 330 | 0.0 | 0.0 | 0.00 | 0.03 | 0.03 | 82 | 1020.1 |
| 20260506230330 | 35 | 303 | 1.7 | 1.7 | 0.00 | 0.03 | 0.03 | 78 | 1020.0 |
| 20260506225827 | 34 | 287 | 0.0 | 0.0 | 0.00 | 0.03 | 0.03 | 82 | 1020.0 |
| 20260506225324 | 34 | 223 | 0.9 | 1.7 | 0.00 | 0.03 | 0.03 | 81 | 1019.7 |
| 20260506224821 | 34 | 305 | 0.0 | 0.9 | 0.00 | 0.03 | 0.03 | 83 | 1019.7 |
| 20260506224318 | 33 | 265 | 0.0 | 0.0 | 0.00 | 0.03 | 0.03 | 86 | 1020.0 |
| 20260506223814 | 32 | 298 | 1.7 | 1.7 | 0.00 | 0.03 | 0.03 | 84 | 1020.0 |
| 20260506223309 | 34 | 3 | 2.6 | 2.6 | 0.05 | 0.03 | 0.03 | 87 | 1019.7 |
| 20260506222807 | 34 | 271 | 1.7 | 1.7 | 0.12 | 0.03 | 0.03 | 86 | 1019.9 |
| 20260506222305 | 33 | 1 | 1.7 | 1.7 | 0.07 | 0.02 | 0.02 | 83 | 1019.9 |
| 20260506221801 | 33 | 314 | 0.9 | 1.7 | 0.00 | 0.01 | 0.01 | 86 | 1020.2 |
| 20260506221258 | 33 | 258 | 0.0 | 0.0 | 0.00 | 0.01 | 0.01 | 86 | 1020.0 |
| 20260506220755 | 33 | 322 | 0.9 | 0.9 | 0.00 | 0.01 | 0.01 | 87 | 1019.9 |
| 20260506220250 | 32 | 358 | 0.9 | 1.7 | 0.00 | 0.01 | 0.01 | 86 | 1020.1 |
| 20260506215747 | 32 | 297 | 1.7 | 1.7 | 0.00 | 0.01 | 0.01 | 87 | 1020.0 |
| 20260506215243 | 31 | 309 | 1.7 | 1.7 | 0.00 | 0.01 | 0.01 | 86 | 1019.7 |
| 20260506214739 | 32 | 328 | 0.0 | 0.9 | 0.00 | 0.01 | 0.01 | 87 | 1020.0 |
| 20260506214236 | 32 | 288 | 1.7 | 2.6 | 0.00 | 0.01 | 0.01 | 87 | 1020.0 |
| 20260506213735 | 33 | 323 | 0.9 | 0.9 | 0.00 | 0.01 | 0.01 | 86 | 1020.0 |
| 20260506213232 | 33 | 343 | 0.0 | 0.9 | 0.00 | 0.01 | 0.01 | 85 | 1020.0 |
| 20260506212729 | 33 | 324 | 2.6 | 6.1 | 0.00 | 0.01 | 0.01 | 83 | 1020.0 |
| 20260506212224 | 32 | 328 | 0.0 | 0.9 | 0.00 | 0.01 | 0.01 | 89 | 1020.2 |
| 20260506211720 | 32 | 340 | 2.6 | 2.6 | 0.00 | 0.01 | 0.01 | 88 | 1020.2 |
| 20260506211216 | 32 | 9 | 0.9 | 1.7 | 0.00 | 0.01 | 0.01 | 86 | 1020.2 |
| 20260506210713 | 33 | 348 | 3.5 | 4.3 | 0.00 | 0.01 | 0.01 | 86 | 1020.0 |
| 20260506210210 | 31 | 1 | 2.6 | 2.6 | 0.00 | 0.01 | 0.01 | 89 | 1020.1 |
| 20260506205707 | 32 | 340 | 2.6 | 2.6 | 0.00 | 0.01 | 0.01 | 89 | 1020.1 |
| 20260506205202 | 32 | 348 | 2.6 | 2.6 | 0.00 | 0.01 | 0.01 | 91 | 1019.7 |
| 20260506204700 | 32 | 358 | 2.6 | 4.3 | 0.00 | 0.01 | 0.01 | 90 | 1020.1 |
| 20260506204156 | 31 | 4 | 0.9 | 0.9 | 0.00 | 0.01 | 0.01 | 91 | 1020.1 |
| 20260506203655 | 31 | 6 | 2.6 | 2.6 | 0.00 | 0.01 | 0.01 | 90 | 1020.1 |
| 20260506203152 | 33 | 345 | 1.7 | 2.6 | 0.05 | 0.01 | 0.01 | 90 | 1020.5 |
| 20260506202650 | 31 | 62 | 2.6 | 2.6 | 0.05 | 0.01 | 0.01 | 89 | 1020.2 |
| 20260506202145 | 32 | 341 | 2.6 | 2.6 | 0.00 | 0.00 | 0.00 | 90 | 1020.2 |
| 20260506201642 | 31 | 35 | 1.7 | 1.7 | 0.00 | 0.00 | 0.00 | 90 | 1020.2 |
| 20260506201139 | 32 | 340 | 0.9 | 1.7 | 0.00 | 0.00 | 0.00 | 91 | 1020.2 |
| 20260506200635 | 31 | 336 | 0.9 | 1.7 | 0.00 | 0.00 | 0.00 | 90 | 1020.0 |
| 20260506200133 | 31 | 349 | 0.9 | 1.7 | 0.00 | 0.00 | 0.00 | 90 | 1020.1 |
| 20260506195629 | 31 | 42 | 1.7 | 2.6 | 0.00 | 0.00 | 0.00 | 92 | 1020.1 |
| 20260506195125 | 30 | 348 | 1.7 | 2.6 | 0.00 | 0.00 | 0.00 | 92 | 1020.4 |
| 20260506194623 | 31 | 3 | 3.5 | 4.3 | 0.00 | 0.00 | 0.00 | 91 | 1020.0 |
| 20260506194119 | 32 | 341 | 2.6 | 2.6 | 0.00 | 0.00 | 0.00 | 91 | 1020.0 |
| 20260506193617 | 32 | 4 | 4.3 | 5.2 | 0.00 | 0.00 | 0.00 | 91 | 1019.9 |
| 20260506193114 | 31 | 92 | 0.9 | 1.7 | 0.00 | 0.00 | 0.00 | 91 | 1020.0 |
| 20260506192611 | 32 | 338 | 0.0 | 0.0 | 0.00 | 0.00 | 0.00 | 90 | 1020.1 |
| 20260506192106 | 32 | 347 | 2.6 | 4.3 | 0.00 | 0.00 | 0.00 | 91 | 1020.0 |
| 20260506191603 | 32 | 343 | 2.6 | 2.6 | 0.00 | 0.00 | 0.00 | 90 | 1020.1 |
| 20260506191059 | 32 | 337 | 0.0 | 0.0 | 0.00 | 0.00 | 0.00 | 90 | 1019.7 |
| 20260506190557 | 32 | 334 | 0.0 | 0.0 | 0.00 | 0.00 | 0.00 | 90 | 1019.9 |
| 20260506190054 | 32 | 330 | 0.0 | 0.0 | 0.00 | 0.00 | 0.00 | 90 | 1019.7 |
| 20260506185551 | 32 | 326 | 0.0 | 0.0 | 0.00 | 0.00 | 0.00 | 91 | 1020.0 |
| 20260506185047 | 32 | 327 | 0.0 | 0.0 | 0.00 | 0.00 | 0.00 | 93 | 1019.9 |
| 20260506184545 | 31 | 326 | 0.0 | 0.0 | 0.00 | 0.00 | 0.00 | 93 | 1019.7 |
| 20260506184042 | 30 | 326 | 0.0 | 0.0 | 0.00 | 0.00 | 0.00 | 92 | 1020.0 |
| 20260506183538 | 30 | 326 | 0.0 | 0.0 | 0.00 | 0.00 | 0.00 | 92 | 1020.1 |
| 20260506183034 | 31 | 326 | 0.0 | 0.0 | 0.00 | 0.00 | 0.00 | 92 | 1020.2 |
| 20260506182532 | 30 | 326 | 0.0 | 0.0 | 0.00 | 0.00 | 0.00 | 92 | 1020.0 |
| 20260506182029 | 30 | 325 | 0.0 | 0.0 | 0.00 | 0.00 | 0.00 | 91 | 1020.1 |
| 20260506181527 | 30 | 326 | 0.0 | 0.0 | 0.00 | 0.00 | 0.00 | 91 | 1020.1 |
| 20260506181023 | 30 | 326 | 0.0 | 0.0 | 0.00 | 0.00 | 0.00 | 92 | 1020.2 |
| 20260506180520 | 30 | 325 | 0.0 | 0.0 | 0.00 | 0.00 | 0.00 | 91 | 1020.2 |
| 20260506180017 | 30 | 324 | 0.0 | 0.0 | 0.00 | 0.00 | 0.00 | 93 | 1020.2 |
| 20260506175513 | 30 | 324 | 0.0 | 0.0 | 0.00 | 0.00 | 0.00 | 93 | 1020.1 |
| 20260506175010 | 30 | 323 | 0.0 | 0.0 | 0.00 | 0.00 | 0.00 | 94 | 1020.1 |
| 20260506174508 | 30 | 323 | 0.0 | 0.0 | 0.00 | 0.00 | 0.00 | 93 | 1020.0 |
| 20260506174004 | 30 | 323 | 0.0 | 0.0 | 0.00 | 0.00 | 0.00 | 93 | 1019.9 |
| 20260506173502 | 29 | 322 | 0.0 | 0.0 | 0.00 | 0.00 | 0.00 | 93 | 1019.9 |
| 20260506172958 | 29 | 321 | 0.0 | 0.0 | 0.00 | 0.00 | 0.00 | 93 | 1020.0 |
| 20260506172456 | 29 | 320 | 0.0 | 0.0 | 0.00 | 0.00 | 0.00 | 94 | 1019.9 |